Time;durP1;ratioP1;P1;durP2;ratioP2;P2;SDS_P1;SDS_P2;PMS_P1;PMS_P2;Temp;Humidity;BMP_temperature;BMP_pressure;BME280_temperature;BME280_humidity;BME280_pressure;Samples;Min_cycle;Max_cycle;Signal;HPM_P1;HPM_P2
2023/09/05 00:01:45;;;;;;;;;;;;;;;-144.99;100.00;52289.13;4584969;31;20071;-77
2023/09/05 00:04:12;;;;;;;;;;;;;;;-144.99;100.00;52321.72;4579527;31;20052;-77
2023/09/05 00:06:41;;;;;;;;;;;;;;;-144.99;100.00;52256.50;4579567;31;19963;-76
2023/09/05 00:09:08;;;;;;;;;;;;;;;-144.99;100.00;52268.72;4583062;31;20227;-76
2023/09/05 00:11:34;;;;;;;;;;;;;;;-144.99;100.00;52297.25;4585480;31;20064;-76
2023/09/05 00:14:01;;;;;;;;;;;;;;;-144.99;100.00;52289.13;4585377;31;19944;-77
2023/09/05 00:16:28;;;;;;;;;;;;;;;-144.99;100.00;52329.88;4595853;31;19940;-78
2023/09/05 00:18:54;;;;;;;;;;;;;;;-144.99;100.00;52291.16;4605136;31;19982;-76
2023/09/05 00:21:20;;;;;;;;;;;;;;;-144.99;100.00;52232.03;4586799;31;20035;-76
2023/09/05 00:23:48;;;;;;;;;;;;;;;-144.99;100.00;52270.78;4589492;31;20054;-76
2023/09/05 00:26:15;;;;;;;;;;;;;;;-144.99;100.00;52285.03;4583842;31;19933;-76
2023/09/05 00:28:43;;;;;;;;;;;;;;;-144.99;100.00;52297.25;4585098;31;20387;-76
2023/09/05 00:31:11;;;;;;;;;;;;;;;-144.99;100.00;52287.06;4586648;31;19991;-75
2023/09/05 00:33:37;;;;;;;;;;;;;;;-144.99;100.00;52283.00;4586646;31;19965;-76
2023/09/05 00:36:04;;;;;;;;;;;;;;;-144.99;100.00;52309.50;4588691;31;19995;-82
2023/09/05 00:38:32;;;;;;;;;;;;;;;-144.99;100.00;52252.44;4597722;31;19969;-83
2023/09/05 00:41:02;;;;;;;;;;;;;;;-144.99;100.00;52268.72;4589368;31;19954;-83
2023/09/05 00:43:28;;;;;;;;;;;;;;;-144.99;100.00;52244.28;4591250;31;19970;-80
2023/09/05 00:45:55;;;;;;;;;;;;;;;-144.99;100.00;52276.88;4597965;31;19960;-80
2023/09/05 00:48:27;;;;;;;;;;;;;;;-144.99;100.00;52272.81;4596288;31;19952;-79
2023/09/05 00:50:56;;;;;;;;;;;;;;;-144.99;100.00;52336.00;4579813;31;19938;-83
2023/09/05 00:53:23;;;;;;;;;;;;;;;-144.99;100.00;52297.25;4558562;30;1837238;-83
2023/09/05 00:55:50;;;;;;;;;;;;;;;-144.99;100.00;52291.16;4748042;30;19950;-83
2023/09/05 00:58:18;;;;;;;;;;;;;;;-144.99;100.00;52291.16;4777839;30;19956;-78
2023/09/05 01:00:45;;;;;;;;;;;;;;;-144.99;100.00;52313.56;4756642;30;19938;-77
2023/09/05 01:03:11;;;;;;;;;;;;;;;-144.99;100.00;52285.03;4762144;30;20015;-79
2023/09/05 01:05:41;;;;;;;;;;;;;;;-144.99;100.00;52278.91;4766453;30;19991;-79
2023/09/05 01:08:10;;;;;;;;;;;;;;;-144.99;100.00;52313.56;4758936;30;19992;-81
2023/09/05 01:10:46;;;;;;;;;;;;;;;-144.99;100.00;52276.88;4759112;30;19973;-77
2023/09/05 01:13:12;;;;;;;;;;;;;;;-144.99;100.00;52301.34;4761707;30;20541;-77
2023/09/05 01:15:40;;;;;;;;;;;;;;;-144.99;100.00;52264.66;4762786;30;20024;-78
2023/09/05 01:18:07;;;;;;;;;;;;;;;-144.99;100.00;52287.06;4756146;30;19977;-77
2023/09/05 01:20:40;;;;;;;;;;;;;;;-144.99;100.00;52280.97;4762662;30;19930;-78
2023/09/05 01:23:10;;;;;;;;;;;;;;;-144.99;100.00;52270.78;4764413;30;20053;-77
2023/09/05 01:25:37;;;;;;;;;;;;;;;-144.99;100.00;52260.56;4768470;30;19948;-78
2023/09/05 01:28:05;;;;;;;;;;;;;;;-144.99;100.00;52303.38;4761459;29;20379;-78
2023/09/05 01:30:31;;;;;;;;;;;;;;;-144.99;100.00;52293.19;4759685;30;20013;-78
2023/09/05 01:32:57;;;;;;;;;;;;;;;-144.99;100.00;52285.03;4768386;30;20018;-77
2023/09/05 01:35:24;;;;;;;;;;;;;;;-144.99;100.00;52299.31;4773991;30;20538;-75
2023/09/05 01:37:50;;;;;;;;;;;;;;;-144.99;100.00;52276.88;4758081;30;21068;-79
2023/09/05 01:40:16;;;;;;;;;;;;;;;-144.99;100.00;52287.06;4765098;30;20353;-79
2023/09/05 01:42:44;;;;;;;;;;;;;;;-144.99;100.00;52285.03;4755292;30;20006;-79
2023/09/05 01:45:11;;;;;;;;;;;;;;;-144.99;100.00;52291.16;4764340;30;20257;-80
2023/09/05 01:47:37;;;;;;;;;;;;;;;-144.99;100.00;52291.16;4759109;30;19950;-79
2023/09/05 01:50:04;;;;;;;;;;;;;;;-144.99;100.00;52256.50;4760796;30;20024;-77
2023/09/05 01:52:30;;;;;;;;;;;;;;;-144.99;100.00;52305.41;4757345;30;20049;-78
2023/09/05 01:54:56;;;;;;;;;;;;;;;-144.99;100.00;52268.72;4794232;29;20048;-78
2023/09/05 01:57:23;;;;;;;;;;;;;;;-144.99;100.00;52297.25;4801183;29;20117;-79
2023/09/05 01:59:51;;;;;;;;;;;;;;;-144.99;100.00;52295.22;4804543;29;20054;-80
2023/09/05 02:02:17;;;;;;;;;;;;;;;-144.99;100.00;52305.41;4797412;29;19993;-80
2023/09/05 02:04:43;;;;;;;;;;;;;;;-144.99;100.00;52293.19;4786182;29;20002;-81
2023/09/05 02:07:10;;;;;;;;;;;;;;;-144.99;100.00;52297.25;4801244;29;20024;-81
2023/09/05 02:09:36;;;;;;;;;;;;;;;-144.99;100.00;52305.41;4805934;29;20063;-80
2023/09/05 02:12:03;;;;;;;;;;;;;;;-144.99;100.00;52293.19;4818710;29;19949;-79
2023/09/05 02:14:29;;;;;;;;;;;;;;;-144.99;100.00;52285.03;4794078;29;19985;-79
2023/09/05 02:16:57;;;;;;;;;;;;;;;-144.99;100.00;52311.53;4801760;29;19961;-79
2023/09/05 02:19:26;;;;;;;;;;;;;;;-144.99;100.00;52317.66;4799729;29;20809;-79
2023/09/05 02:21:53;;;;;;;;;;;;;;;-144.99;100.00;52342.09;4803918;29;19959;-78
2023/09/05 02:24:19;;;;;;;;;;;;;;;-144.99;100.00;52305.41;4788608;29;19968;-80
2023/09/05 02:26:46;;;;;;;;;;;;;;;-144.99;100.00;52287.06;4797319;29;20618;-79
2023/09/05 02:29:12;;;;;;;;;;;;;;;-144.99;100.00;52285.03;4797379;29;19990;-80
2023/09/05 02:31:39;;;;;;;;;;;;;;;-144.99;100.00;52260.56;4801935;29;20502;-79
2023/09/05 02:34:06;;;;;;;;;;;;;;;-144.99;100.00;52301.34;4796027;29;19991;-76
2023/09/05 02:36:33;;;;;;;;;;;;;;;-144.99;100.00;52270.78;4802011;29;19979;-79
2023/09/05 02:39:00;;;;;;;;;;;;;;;-144.99;100.00;52268.72;4803364;29;20022;-80
2023/09/05 02:41:26;;;;;;;;;;;;;;;-144.99;100.00;52289.13;4800600;29;20031;-80
2023/09/05 02:43:53;;;;;;;;;;;;;;;-144.99;100.00;52293.19;4798608;29;20388;-78
2023/09/05 02:46:20;;;;;;;;;;;;;;;-144.99;100.00;52293.19;4789763;29;19948;-78
2023/09/05 02:48:47;;;;;;;;;;;;;;;-144.99;100.00;52305.41;4805865;29;19928;-81
2023/09/05 02:51:14;;;;;;;;;;;;;;;-144.99;100.00;52289.13;4830773;29;19978;-78
2023/09/05 02:53:41;;;;;;;;;;;;;;;-144.99;100.00;52272.81;4839392;29;19957;-78
2023/09/05 02:56:08;;;;;;;;;;;;;;;-144.99;100.00;52252.44;4939164;28;20322;-79
2023/09/05 02:58:34;;;;;;;;;;;;;;;-144.99;100.00;52329.88;4953561;28;20040;-77
2023/09/05 03:01:01;;;;;;;;;;;;;;;-144.99;100.00;52285.03;4953377;28;20027;-80
2023/09/05 03:03:28;;;;;;;;;;;;;;;-144.99;100.00;52313.56;4953510;28;19958;-78
2023/09/05 03:05:55;;;;;;;;;;;;;;;-144.99;100.00;52276.88;4950713;28;20010;-79
2023/09/05 03:08:22;;;;;;;;;;;;;;;-144.99;100.00;52313.56;4952938;28;20416;-79
2023/09/05 03:10:50;;;;;;;;;;;;;;;-144.99;100.00;52276.88;4955193;28;20084;-81
2023/09/05 03:13:16;;;;;;;;;;;;;;;-144.99;100.00;52293.19;4962227;28;19994;-82
2023/09/05 03:15:43;;;;;;;;;;;;;;;-144.99;100.00;52307.47;4964117;28;19958;-82
2023/09/05 03:18:09;;;;;;;;;;;;;;;-144.99;100.00;52309.50;4963954;28;20012;-81
2023/09/05 03:20:36;;;;;;;;;;;;;;;-144.99;100.00;52309.50;4965027;28;20454;-82
2023/09/05 03:23:02;;;;;;;;;;;;;;;-144.99;100.00;52333.94;4955071;28;20014;-78
2023/09/05 03:25:30;;;;;;;;;;;;;;;-144.99;100.00;52309.50;4954813;28;20461;-80
2023/09/05 03:27:56;;;;;;;;;;;;;;;-144.99;100.00;52311.53;4978207;28;20026;-80
2023/09/05 03:30:23;;;;;;;;;;;;;;;-144.99;100.00;52272.81;4971217;28;19952;-80
2023/09/05 03:32:49;;;;;;;;;;;;;;;-144.99;100.00;52280.97;4958392;28;20008;-80
2023/09/05 03:35:16;;;;;;;;;;;;;;;-144.99;100.00;52305.41;4954370;28;20006;-76
2023/09/05 03:37:42;;;;;;;;;;;;;;;-144.99;100.00;52299.31;4950894;28;19938;-75
2023/09/05 03:40:10;;;;;;;;;;;;;;;-144.99;100.00;52295.22;4949916;28;20592;-76
2023/09/05 03:42:38;;;;;;;;;;;;;;;-144.99;100.00;52291.16;4952181;28;19943;-75
2023/09/05 03:45:04;;;;;;;;;;;;;;;-144.99;100.00;52285.03;4952237;28;20009;-75
2023/09/05 03:47:31;;;;;;;;;;;;;;;-144.99;100.00;52329.88;4951979;28;20018;-76
2023/09/05 03:49:58;;;;;;;;;;;;;;;-144.99;100.00;52350.25;4953457;28;20044;-78
2023/09/05 03:52:24;;;;;;;;;;;;;;;-144.99;100.00;52350.25;4951677;28;19961;-78
2023/09/05 03:54:51;;;;;;;;;;;;;;;-144.99;100.00;52285.03;4961973;28;19961;-74
2023/09/05 03:57:17;;;;;;;;;;;;;;;-144.99;100.00;52354.34;4950954;28;20025;-79
2023/09/05 03:59:45;;;;;;;;;;;;;;;-144.99;100.00;52321.72;4949293;28;19958;-77
2023/09/05 04:02:12;;;;;;;;;;;;;;;-144.99;100.00;52305.41;4950377;28;20504;-73
2023/09/05 04:04:38;;;;;;;;;;;;;;;-144.99;100.00;52295.22;4961330;28;19923;-77
2023/09/05 04:07:04;;;;;;;;;;;;;;;-144.99;100.00;52321.72;4974643;28;19965;-71
2023/09/05 04:09:31;;;;;;;;;;;;;;;-144.99;100.00;52313.56;4950762;28;20476;-74
2023/09/05 04:11:57;;;;;;;;;;;;;;;-144.99;100.00;52303.38;4947826;28;20029;-73
2023/09/05 04:14:24;;;;;;;;;;;;;;;-144.99;100.00;52278.91;4949863;28;20080;-74
2023/09/05 04:16:51;;;;;;;;;;;;;;;-144.99;100.00;52301.34;4952349;28;19949;-74
2023/09/05 04:19:18;;;;;;;;;;;;;;;-144.99;100.00;52285.03;4950710;28;19996;-75
2023/09/05 04:21:44;;;;;;;;;;;;;;;-144.99;100.00;52342.09;4947494;28;19938;-75
2023/09/05 04:24:11;;;;;;;;;;;;;;;-144.99;100.00;52301.34;4949069;28;20035;-76
2023/09/05 04:26:38;;;;;;;;;;;;;;;-144.99;100.00;52258.53;4951756;28;19946;-79
2023/09/05 04:29:05;;;;;;;;;;;;;;;-144.99;100.00;52338.03;4947661;28;20040;-74
2023/09/05 04:31:31;;;;;;;;;;;;;;;-144.99;100.00;52301.34;4942621;28;19964;-76
2023/09/05 04:33:59;;;;;;;;;;;;;;;-144.99;100.00;52305.41;4950576;28;19927;-74
2023/09/05 04:36:26;;;;;;;;;;;;;;;-144.99;100.00;52293.19;4945464;28;20436;-75
2023/09/05 04:38:52;;;;;;;;;;;;;;;-144.99;100.00;52301.34;4945080;28;20002;-74
2023/09/05 04:41:20;;;;;;;;;;;;;;;-144.99;100.00;52293.19;4945171;28;19977;-74
2023/09/05 04:43:46;;;;;;;;;;;;;;;-144.99;100.00;52325.81;4974541;28;19964;-74
2023/09/05 04:46:14;;;;;;;;;;;;;;;-144.99;100.00;52336.00;4961423;28;19949;-72
2023/09/05 04:48:40;;;;;;;;;;;;;;;-144.99;100.00;52297.25;4949963;28;19943;-75
2023/09/05 04:51:08;;;;;;;;;;;;;;;-144.99;100.00;52325.81;4947729;28;19974;-74
2023/09/05 04:53:34;;;;;;;;;;;;;;;-144.99;100.00;52293.19;4966687;28;20041;-75
2023/09/05 04:56:02;;;;;;;;;;;;;;;-144.99;100.00;52260.56;4989512;28;20012;-74
2023/09/05 04:58:29;;;;;;;;;;;;;;;-144.99;100.00;52329.88;4989957;28;20026;-75
2023/09/05 05:00:56;;;;;;;;;;;;;;;-144.99;100.00;52289.13;4997747;28;19951;-74
2023/09/05 05:03:23;;;;;;;;;;;;;;;-144.99;100.00;52305.41;4988555;28;19958;-74
2023/09/05 05:05:50;;;;;;;;;;;;;;;-144.99;100.00;52342.09;4988405;28;19938;-73
2023/09/05 05:08:17;;;;;;;;;;;;;;;-144.99;100.00;52264.66;4990019;28;19996;-78
2023/09/05 05:10:44;;;;;;;;;;;;;;;-144.99;100.00;52276.88;4990348;28;19937;-77
2023/09/05 05:13:10;;;;;;;;;;;;;;;-144.99;100.00;52295.22;4989141;28;20003;-79
2023/09/05 05:15:37;;;;;;;;;;;;;;;-144.99;100.00;52289.13;4988859;28;20045;-78
2023/09/05 05:18:03;;;;;;;;;;;;;;;-144.99;100.00;52313.56;4986849;28;19965;-79
2023/09/05 05:20:30;;;;;;;;;;;;;;;-144.99;100.00;52270.78;4998438;28;19940;-81
2023/09/05 05:22:56;;;;;;;;;;;;;;;-144.99;100.00;52327.84;4667233;28;9999747;-77
2023/09/05 05:25:24;;;;;;;;;;;;;;;-144.99;100.00;52317.66;4988009;28;20527;-78
2023/09/05 05:27:51;;;;;;;;;;;;;;;-144.99;100.00;52299.31;4984190;28;20432;-78
2023/09/05 05:30:17;;;;;;;;;;;;;;;-144.99;100.00;52317.66;4988409;28;20538;-79
2023/09/05 05:32:46;;;;;;;;;;;;;;;-144.99;100.00;52256.50;4986626;28;20038;-78
2023/09/05 05:35:12;;;;;;;;;;;;;;;-144.99;100.00;52283.00;4987206;28;19929;-78
2023/09/05 05:37:39;;;;;;;;;;;;;;;-144.99;100.00;52329.88;4987246;28;20012;-77
2023/09/05 05:40:06;;;;;;;;;;;;;;;-144.99;100.00;52301.34;4985258;28;19947;-75
2023/09/05 05:42:33;;;;;;;;;;;;;;;-144.99;100.00;52264.66;4982648;28;20020;-76
2023/09/05 05:45:00;;;;;;;;;;;;;;;-144.99;100.00;52260.56;4985499;28;19957;-76
2023/09/05 05:47:27;;;;;;;;;;;;;;;-144.99;100.00;52238.16;4986925;28;20381;-77
2023/09/05 05:49:53;;;;;;;;;;;;;;;-144.99;100.00;52287.06;4986332;28;20006;-77
2023/09/05 05:52:20;;;;;;;;;;;;;;;-144.99;100.00;52309.50;4987435;28;19966;-78
2023/09/05 05:54:46;;;;;;;;;;;;;;;-144.99;100.00;52264.66;4968629;28;20671;-77
2023/09/05 05:57:13;;;;;;;;;;;;;;;-144.99;100.00;52260.56;4963197;28;20405;-80
2023/09/05 05:59:41;;;;;;;;;;;;;;;-144.99;100.00;52256.50;4997531;28;19934;-80
2023/09/05 06:02:07;;;;;;;;;;;;;;;-144.99;100.00;52232.03;4976386;28;19979;-77
2023/09/05 06:04:34;;;;;;;;;;;;;;;-144.99;100.00;52264.66;4967628;28;19999;-77
2023/09/05 06:07:00;;;;;;;;;;;;;;;-144.99;100.00;52254.47;4965389;28;20020;-77
2023/09/05 06:09:27;;;;;;;;;;;;;;;-144.99;100.00;52240.19;4968085;28;20457;-75
2023/09/05 06:11:53;;;;;;;;;;;;;;;-144.99;100.00;52258.53;4964364;28;19997;-77
2023/09/05 06:14:20;;;;;;;;;;;;;;;-144.99;100.00;52258.53;4965615;28;19974;-78
2023/09/05 06:16:48;;;;;;;;;;;;;;;-144.99;100.00;52244.28;4966660;28;19977;-76
2023/09/05 06:19:14;;;;;;;;;;;;;;;-144.99;99.85;52285.03;4960712;28;20333;-78
2023/09/05 06:21:45;;;;;;;;;;;;;;;-144.99;99.08;52248.34;4967765;28;19940;-78
2023/09/05 06:24:12;;;;;;;;;;;;;;;-144.99;98.64;52230.00;4967661;28;20369;-77
2023/09/05 06:26:38;;;;;;;;;;;;;;;-144.99;97.93;52225.94;4967383;28;19990;-79
2023/09/05 06:29:05;;;;;;;;;;;;;;;-144.99;97.88;52285.03;4967859;28;20029;-77
2023/09/05 06:31:31;;;;;;;;;;;;;;;-144.99;97.21;52223.88;4963807;28;20003;-79
2023/09/05 06:33:59;;;;;;;;;;;;;;;-144.99;97.03;52248.34;4968960;28;20016;-76
2023/09/05 06:36:25;;;;;;;;;;;;;;;-144.99;96.26;52236.13;4987023;28;19984;-81
2023/09/05 06:38:52;;;;;;;;;;;;;;;-144.99;96.06;52260.56;4986800;28;19930;-76
2023/09/05 06:41:18;;;;;;;;;;;;;;;-144.99;95.27;52240.19;4967955;28;20020;-78
2023/09/05 06:43:44;;;;;;;;;;;;;;;-144.99;94.76;52260.56;4967881;28;19960;-77
2023/09/05 06:46:11;;;;;;;;;;;;;;;-144.99;94.55;52236.13;4966176;28;19957;-77
2023/09/05 06:48:39;;;;;;;;;;;;;;;-144.99;94.01;52215.75;4967632;28;20620;-76
2023/09/05 06:51:07;;;;;;;;;;;;;;;-144.99;92.95;52240.19;4966998;28;19937;-76
2023/09/05 06:53:34;;;;;;;;;;;;;;;-144.99;92.29;52225.94;4651319;23;10000077;-76
2023/09/05 06:56:00;;;;;;;;;;;;;;;-144.99;91.18;52203.50;4997582;28;19933;-74
2023/09/05 06:58:27;;;;;;;;;;;;;;;-144.99;90.96;52177.00;4994009;28;20031;-74
2023/09/05 07:00:55;;;;;;;;;;;;;;;-144.99;90.41;52232.03;4992245;28;19946;-76
2023/09/05 07:03:22;;;;;;;;;;;;;;;-144.99;89.60;52234.09;4982396;28;20068;-75
2023/09/05 07:05:48;;;;;;;;;;;;;;;-144.99;89.58;52244.28;4978632;28;19941;-75
2023/09/05 07:08:16;;;;;;;;;;;;;;;-144.99;89.70;52219.81;4978187;28;19944;-76
2023/09/05 07:10:43;;;;;;;;;;;;;;;-144.99;89.42;52221.84;4973376;28;20039;-75
2023/09/05 07:13:09;;;;;;;;;;;;;;;-144.99;89.37;52232.03;4972914;28;19953;-75
2023/09/05 07:15:36;;;;;;;;;;;;;;;-144.99;88.90;52193.31;4980572;28;19975;-74
2023/09/05 07:18:03;;;;;;;;;;;;;;;-144.99;88.40;52236.13;4987924;28;19956;-74
2023/09/05 07:20:30;;;;;;;;;;;;;;;-144.99;87.95;52219.81;4976650;28;19969;-75
2023/09/05 07:22:56;;;;;;;;;;;;;;;-144.99;87.87;52183.13;4980403;28;20000;-75
2023/09/05 07:25:24;;;;;;;;;;;;;;;-144.99;87.66;52215.75;4974428;28;20003;-76
2023/09/05 07:27:51;;;;;;;;;;;;;;;-144.99;87.48;52219.81;4979458;28;20413;-75
2023/09/05 07:30:17;;;;;;;;;;;;;;;-144.99;86.62;52179.06;4977592;28;20317;-76
2023/09/05 07:32:44;;;;;;;;;;;;;;;-144.99;86.40;52219.81;4977515;28;20336;-75
2023/09/05 07:35:10;;;;;;;;;;;;;;;-144.99;87.48;52221.84;4974209;28;20477;-76
2023/09/05 07:37:38;;;;;;;;;;;;;;;-144.99;87.55;52240.19;4982581;28;19960;-75
2023/09/05 07:40:06;;;;;;;;;;;;;;;-144.99;86.93;52183.13;4983913;28;19963;-75
2023/09/05 07:42:34;;;;;;;;;;;;;;;-144.99;86.38;52195.34;4982841;28;20398;-75
2023/09/05 07:45:01;;;;;;;;;;;;;;;-144.99;85.49;52201.47;4981895;28;20050;-76
2023/09/05 07:47:28;;;;;;;;;;;;;;;-144.99;85.79;52187.19;4984833;28;20024;-75
2023/09/05 07:49:54;;;;;;;;;;;;;;;-144.99;84.93;52189.25;4984789;28;19929;-75
2023/09/05 07:52:21;;;;;;;;;;;;;;;-144.99;85.38;52191.28;4980837;28;20055;-75
2023/09/05 07:54:47;;;;;;;;;;;;;;;-144.99;84.19;52183.13;4975688;28;20003;-75
2023/09/05 07:57:15;;;;;;;;;;;;;;;-144.99;83.39;52174.97;4980539;28;19933;-75
2023/09/05 07:59:42;;;;;;;;;;;;;;;-144.99;82.42;52185.16;4976624;28;19962;-76
2023/09/05 08:02:10;;;;;;;;;;;;;;;-144.99;81.53;52195.34;4986422;28;20006;-75
2023/09/05 08:04:38;;;;;;;;;;;;;;;-144.99;81.46;52187.19;4970985;28;20584;-75
2023/09/05 08:07:05;;;;;;;;;;;;;;;-144.99;81.17;52193.31;4983067;28;20477;-76
2023/09/05 08:09:32;;;;;;;;;;;;;;;-144.99;81.27;52215.75;4975627;28;19941;-75
2023/09/05 08:11:58;;;;;;;;;;;;;;;-144.99;81.62;52191.28;4981138;28;20008;-75
2023/09/05 08:14:25;;;;;;;;;;;;;;;-144.99;80.96;52179.06;4977377;28;19937;-75
2023/09/05 08:16:53;;;;;;;;;;;;;;;-144.99;80.44;52193.31;4975439;28;19956;-75
2023/09/05 08:19:19;;;;;;;;;;;;;;;-144.99;79.97;52170.91;4974247;28;20360;-75
2023/09/05 08:21:46;;;;;;;;;;;;;;;-144.99;79.07;52179.06;4980890;28;19929;-75
2023/09/05 08:24:12;;;;;;;;;;;;;;;-144.99;78.12;52166.81;4978618;28;20000;-75
2023/09/05 08:26:39;;;;;;;;;;;;;;;-144.99;77.18;52154.59;4978720;28;20350;-76
2023/09/05 08:29:06;;;;;;;;;;;;;;;-144.99;76.59;52146.44;4975187;28;20158;-77
2023/09/05 08:31:33;;;;;;;;;;;;;;;-144.99;76.08;52166.81;4984109;28;19960;-76
2023/09/05 08:34:00;;;;;;;;;;;;;;;-144.99;75.69;52134.22;4986531;28;20065;-76
2023/09/05 08:36:27;;;;;;;;;;;;;;;-144.99;75.71;52130.13;4990400;28;19946;-76
2023/09/05 08:38:53;;;;;;;;;;;;;;;-144.99;74.30;52146.44;4987523;28;19964;-75
2023/09/05 08:41:20;;;;;;;;;;;;;;;-144.99;73.80;52126.06;4977978;28;19926;-75
2023/09/05 08:43:46;;;;;;;;;;;;;;;-144.99;72.74;52140.31;4983392;28;20425;-76
2023/09/05 08:46:14;;;;;;;;;;;;;;;-144.99;72.93;52113.84;4982444;28;20072;-75
2023/09/05 08:48:40;;;;;;;;;;;;;;;-144.99;73.57;52138.28;4972827;28;19993;-77
2023/09/05 08:51:11;;;;;;;;;;;;;;;-144.99;72.54;52126.06;4973486;28;19995;-76
2023/09/05 08:53:41;;;;;;;;;;;;;;;-144.99;71.64;52162.75;4978072;28;19960;-76
2023/09/05 08:56:09;;;;;;;;;;;;;;;-144.99;70.57;52132.19;4979521;28;19968;-76
2023/09/05 08:58:36;;;;;;;;;;;;;;;-144.99;70.28;52134.22;4982407;28;20439;-76
2023/09/05 09:01:02;;;;;;;;;;;;;;;-144.99;70.42;52119.94;4971165;28;20005;-76
2023/09/05 09:03:30;;;;;;;;;;;;;;;-144.99;70.63;52138.28;4973149;28;20059;-76
2023/09/05 09:05:57;;;;;;;;;;;;;;;-144.99;71.05;52124.03;4977883;28;19998;-75
2023/09/05 09:08:25;;;;;;;;;;;;;;;-144.99;71.35;52154.59;4978288;28;20039;-75
2023/09/05 09:11:04;;;;;;;;;;;;;;;-144.99;70.80;52103.66;4973503;28;19926;-76
2023/09/05 09:13:31;;;;;;;;;;;;;;;-144.99;69.44;52126.06;4978420;28;20282;-76
2023/09/05 09:15:57;;;;;;;;;;;;;;;-144.99;70.01;52134.22;4979759;28;19964;-75
2023/09/05 09:18:26;;;;;;;;;;;;;;;-144.99;69.02;52109.75;4978100;28;19981;-76
2023/09/05 09:20:53;;;;;;;;;;;;;;;-144.99;68.84;52134.22;4983042;28;19946;-75
2023/09/05 09:23:26;;;;;;;;;;;;;;;-144.99;67.62;52138.28;4976202;28;20337;-76
2023/09/05 09:25:54;;;;;;;;;;;;;;;-144.99;67.40;52132.19;4979347;28;19990;-76
2023/09/05 09:28:21;;;;;;;;;;;;;;;-144.99;66.95;52115.88;4981691;28;19933;-76
2023/09/05 09:30:54;;;;;;;;;;;;;;;-144.99;66.77;52162.75;4973877;28;19987;-76
2023/09/05 09:33:22;;;;;;;;;;;;;;;-144.99;66.27;52103.66;4984582;28;19984;-76
2023/09/05 09:35:59;;;;;;;;;;;;;;;-144.99;66.24;52113.84;4980693;28;20114;-76
2023/09/05 09:38:27;;;;;;;;;;;;;;;-144.99;65.81;52089.38;4968971;28;19981;-77
2023/09/05 09:40:53;;;;;;;;;;;;;;;-144.99;66.04;52066.97;4979045;28;20292;-77
2023/09/05 09:43:20;;;;;;;;;;;;;;;-144.99;64.74;52089.38;4976508;28;19936;-77
2023/09/05 09:45:46;;;;;;;;;;;;;;;-144.99;63.39;52069.00;4974732;28;20581;-76
2023/09/05 09:48:15;;;;;;;;;;;;;;;-144.99;63.16;52034.34;4974041;28;20003;-77
2023/09/05 09:50:43;;;;;;;;;;;;;;;-144.99;62.77;52062.88;4981245;28;20434;-77
2023/09/05 09:53:12;;;;;;;;;;;;;;;-144.99;61.51;52060.84;4975624;28;19964;-77
2023/09/05 09:55:43;;;;;;;;;;;;;;;-144.99;60.28;52048.63;4982025;28;19992;-77
2023/09/05 09:58:13;;;;;;;;;;;;;;;-144.99;60.52;52048.63;4983406;28;19965;-76
2023/09/05 10:00:44;;;;;;;;;;;;;;;-144.99;60.31;52038.44;4982960;28;19971;-77
2023/09/05 10:03:11;;;;;;;;;;;;;;;-144.99;60.19;52032.31;4975724;28;19960;-76
2023/09/05 10:05:41;;;;;;;;;;;;;;;-144.99;59.78;52060.84;4978929;28;19940;-75
2023/09/05 10:08:08;;;;;;;;;;;;;;;-144.99;59.63;52056.78;4975957;28;19947;-76
2023/09/05 10:10:36;;;;;;;;;;;;;;;-144.99;58.86;52016.00;4978071;28;20038;-76
2023/09/05 10:13:04;;;;;;;;;;;;;;;-144.99;58.63;52020.09;4985048;28;19992;-75
2023/09/05 10:15:31;;;;;;;;;;;;;;;-144.99;58.42;52028.22;4972661;28;20031;-76
2023/09/05 10:17:59;;;;;;;;;;;;;;;-144.99;58.43;51995.63;4978668;28;19983;-77
2023/09/05 10:20:26;;;;;;;;;;;;;;;-144.99;57.62;51958.94;4975632;28;19934;-76
2023/09/05 10:22:53;;;;;;;;;;;;;;;-144.99;57.91;51999.69;4976787;28;19972;-76
2023/09/05 10:25:21;;;;;;;;;;;;;;;-144.99;56.93;51942.63;4979447;28;20119;-76
2023/09/05 10:27:47;;;;;;;;;;;;;;;-144.99;56.75;51930.41;4970847;28;20019;-76
2023/09/05 10:30:15;;;;;;;;;;;;;;;-144.99;56.04;51965.06;4977117;28;19946;-76
2023/09/05 10:32:44;;;;;;;;;;;;;;;-144.99;56.16;51926.34;4984519;28;20000;-76
2023/09/05 10:35:11;;;;;;;;;;;;;;;-144.99;56.28;51963.03;4977124;28;20047;-77
2023/09/05 10:37:45;;;;;;;;;;;;;;;-144.99;55.76;51910.03;4983246;28;19973;-76
2023/09/05 10:40:12;;;;;;;;;;;;;;;-144.99;55.43;51897.81;4978923;28;20037;-77
2023/09/05 10:42:43;;;;;;;;;;;;;;;-144.99;54.92;51897.81;4977133;28;19961;-77
2023/09/05 10:45:30;;;;;;;;;;;;;;;-144.99;54.83;51881.50;4998904;28;19940;-77
2023/09/05 10:48:05;;;;;;;;;;;;;;;-144.99;54.53;51832.59;4985273;28;19944;-77
2023/09/05 10:50:32;;;;;;;;;;;;;;;-144.99;53.59;51852.97;4981632;28;19988;-76
2023/09/05 10:53:17;;;;;;;;;;;;;;;-144.99;53.69;51830.56;4984389;28;19966;-77
2023/09/05 10:55:46;;;;;;;;;;;;;;;-144.99;53.78;51855.00;4985039;28;19943;-76
2023/09/05 10:58:31;;;;;;;;;;;;;;;-144.99;53.75;51857.03;4981035;28;20330;-75
2023/09/05 11:01:00;;;;;;;;;;;;;;;-144.99;54.61;51877.44;4975718;28;19973;-76
2023/09/05 11:03:36;;;;;;;;;;;;;;;-144.99;54.99;51869.28;4982949;28;20298;-77
2023/09/05 11:06:11;;;;;;;;;;;;;;;-144.99;54.74;51844.81;4977826;28;19947;-77
2023/09/05 11:08:37;;;;;;;;;;;;;;;-144.99;54.85;51877.44;4979645;28;19940;-77
2023/09/05 11:11:04;;;;;;;;;;;;;;;-144.99;54.11;51840.75;4980966;28;19994;-76
2023/09/05 11:13:31;;;;;;;;;;;;;;;-144.99;54.29;51820.38;4978926;28;19962;-76
2023/09/05 11:16:01;;;;;;;;;;;;;;;-144.99;54.27;51844.81;4981762;28;20357;-76
2023/09/05 11:18:27;;;;;;;;;;;;;;;-144.99;54.21;51836.66;4972123;28;20034;-76
2023/09/05 11:20:54;;;;;;;;;;;;;;;-144.99;54.09;51816.28;4981592;28;19990;-77
2023/09/05 11:23:22;;;;;;;;;;;;;;;-144.99;54.16;51820.38;4990779;28;19964;-76
2023/09/05 11:25:49;;;;;;;;;;;;;;;-144.99;53.64;51791.84;4974352;28;19950;-76
2023/09/05 11:28:16;;;;;;;;;;;;;;;-144.99;53.15;51799.97;4975358;28;20398;-76
2023/09/05 11:30:43;;;;;;;;;;;;;;;-144.99;52.77;51755.16;4980557;28;19984;-77
2023/09/05 11:33:13;;;;;;;;;;;;;;;-144.99;52.45;51749.03;4985550;28;20062;-76
2023/09/05 11:35:41;;;;;;;;;;;;;;;-144.99;52.48;51763.31;4987065;28;19937;-76
2023/09/05 11:38:08;;;;;;;;;;;;;;;-144.99;52.55;51755.16;4982863;28;19957;-76
2023/09/05 11:40:35;;;;;;;;;;;;;;;-144.99;52.99;51759.22;4973541;28;20050;-75
2023/09/05 11:43:03;;;;;;;;;;;;;;;-144.99;52.57;51775.53;4973025;28;19970;-75
2023/09/05 11:45:30;;;;;;;;;;;;;;;-144.99;53.09;51804.06;4973906;28;19940;-76
2023/09/05 11:47:57;;;;;;;;;;;;;;;-144.99;52.71;51722.53;4986875;28;20041;-75
2023/09/05 11:50:26;;;;;;;;;;;;;;;-144.99;52.38;51738.84;4982275;28;20426;-75
2023/09/05 11:52:53;;;;;;;;;;;;;;;-144.99;52.27;51779.59;4976986;28;19969;-75
2023/09/05 11:55:21;;;;;;;;;;;;;;;-144.99;52.09;51734.78;4984104;28;20007;-76
2023/09/05 11:57:50;;;;;;;;;;;;;;;-144.99;52.10;51763.31;4976497;28;19947;-76
2023/09/05 12:00:17;;;;;;;;;;;;;;;-144.99;53.06;51787.75;4990456;28;19937;-77
2023/09/05 12:02:44;;;;;;;;;;;;;;;-144.99;53.00;51808.13;4997343;28;19960;-77
2023/09/05 12:05:11;;;;;;;;;;;;;;;-144.99;52.80;51763.31;4997200;28;20375;-75
2023/09/05 12:07:39;;;;;;;;;;;;;;;-144.99;52.67;51771.44;4982406;28;20405;-76
2023/09/05 12:10:06;;;;;;;;;;;;;;;-144.99;52.81;51726.63;4985538;28;19946;-76
2023/09/05 12:12:33;;;;;;;;;;;;;;;-144.99;52.82;51759.22;4980688;28;20100;-74
2023/09/05 12:15:00;;;;;;;;;;;;;;;-144.99;52.04;51771.44;4975960;28;20062;-77
2023/09/05 12:17:27;;;;;;;;;;;;;;;-144.99;52.52;51771.44;4973949;28;19992;-76
2023/09/05 12:19:55;;;;;;;;;;;;;;;-144.99;52.94;51818.31;4979909;28;20288;-76
2023/09/05 12:22:25;;;;;;;;;;;;;;;-144.99;52.88;51771.44;4981023;28;19933;-76